Quick Links (Output Below):   Max & Min Temps   /   Climate Reports   /   Zone Forecasts
River Forecasts   /   Forestry Forecasts   /   Aviation Forecasts   /   Radars   /   Features

Terminal Aerodrome Forecast (Hot Springs)

Pick a Site:
Arkadelphia | El Dorado | Fayetteville | Fort Smith | Harrison | Highfill | Hot Springs | Jonesboro
Little Rock | Monticello | Mountain Home | Pine Bluff | Texarkana
 Forecast 

KHOT 241134Z 2412/2512 16004KT P6SM BKN250
     FM241700 18006KT P6SM VCTS SCT045CB BKN250
     FM250100 VRB03KT P6SM BKN250=


 Latest METARs (Observations) 
How to Decode METARs
16Z KHOT 241553Z AUTO 24005KT 10SM CLR 29/23 A3001 RMK AO2 SLP155
         T02890228
         
15Z KHOT 241453Z AUTO 24004KT 10SM CLR 28/22 A3000 RMK AO2 SLP152
         T02780222 51010
         
14Z KHOT 241353Z AUTO 00000KT 10SM CLR 26/23 A3000 RMK AO2 SLP150
         T02610228
         
13Z KHOT 241253Z AUTO 00000KT 9SM CLR 26/23 A2998 RMK AO2 SLP146
         T02560233
         
12Z KHOT 241153Z AUTO 24003KT 8SM CLR 24/23 A2997 RMK AO2 SLP141 70007
         T02440228 10256 20239 53006
         
11Z KHOT 241053Z AUTO 00000KT 9SM CLR 24/23 A2996 RMK AO2 SLP138
         T02440228
         
10Z KHOT 240953Z AUTO 00000KT 10SM CLR 24/23 A2996 RMK AO2 SLP137
         T02440228
         
09Z KHOT 240853Z AUTO 00000KT 10SM CLR 24/23 A2995 RMK AO2 SLP134
         T02440228 58000
         
08Z KHOT 240753Z AUTO 06003KT 10SM CLR 24/23 A2995 RMK AO2 SLP132
         T02390228
         
07Z KHOT 240653Z AUTO 00000KT 10SM CLR 25/23 A2996 RMK AO2 SLP135
         T02500228
         
***** Today's Observations (Above) *****


Back to Main Page
http://www.srh.noaa.gov/lzk/qfcst.php

USA.gov is the U.S. government's official web portal to all federal, state and local government web resources and services.